createdAt,value
2017-09-06T00:01:09.763Z,99.90
2017-09-06T00:03:37.338Z,99.90
2017-09-06T00:06:05.039Z,99.90
2017-09-06T00:08:32.625Z,99.90
2017-09-06T00:11:00.515Z,99.90
2017-09-06T00:13:28.104Z,99.90
2017-09-06T00:15:57.363Z,99.90
2017-09-06T00:18:24.953Z,99.90
2017-09-06T00:20:52.557Z,99.90
2017-09-06T00:23:20.731Z,99.90
2017-09-06T00:25:48.301Z,99.90
2017-09-06T00:28:15.891Z,99.90
2017-09-06T00:30:43.459Z,99.90
2017-09-06T00:33:11.387Z,99.90
2017-09-06T00:35:38.955Z,99.90
2017-09-06T00:38:06.539Z,99.90
2017-09-06T00:40:34.126Z,99.90
2017-09-06T00:43:01.701Z,99.90
2017-09-06T00:45:29.279Z,99.90
2017-09-06T00:47:58.529Z,99.90
2017-09-06T00:50:26.115Z,99.90
2017-09-06T00:52:53.693Z,99.90
2017-09-06T00:55:21.257Z,99.90
2017-09-06T00:57:48.820Z,99.90
2017-09-06T01:00:16.704Z,99.90
2017-09-06T01:02:44.289Z,99.90
2017-09-06T01:05:12.622Z,99.90
2017-09-06T01:07:40.217Z,99.90
2017-09-06T01:10:07.789Z,99.90
2017-09-06T01:12:35.369Z,99.90
2017-09-06T01:15:03.016Z,99.90
2017-09-06T01:17:30.639Z,99.90
2017-09-06T01:19:58.767Z,99.90
2017-09-06T01:22:26.357Z,99.90
2017-09-06T01:24:53.936Z,99.90
2017-09-06T01:27:21.904Z,99.90
2017-09-06T01:29:49.477Z,99.90
2017-09-06T01:32:17.048Z,99.90
2017-09-06T01:34:44.617Z,99.90
2017-09-06T01:37:12.166Z,99.90
2017-09-06T01:39:39.755Z,99.90
2017-09-06T01:42:07.325Z,99.90
2017-09-06T01:44:34.902Z,99.90
2017-09-06T01:47:02.467Z,99.90
2017-09-06T01:49:30.054Z,99.80
2017-09-06T01:51:57.615Z,99.60
2017-09-06T01:54:26.248Z,99.40
2017-09-06T01:56:53.796Z,99.40
2017-09-06T01:59:21.357Z,99.40
2017-09-06T02:01:48.961Z,99.50
2017-09-06T02:04:16.535Z,99.30
2017-09-06T02:06:44.139Z,99.40
2017-09-06T02:09:11.699Z,99.50
2017-09-06T02:11:39.540Z,99.30
2017-09-06T02:14:07.092Z,99.50
2017-09-06T02:16:35.449Z,99.40
2017-09-06T02:19:03.029Z,99.50
2017-09-06T02:21:30.633Z,99.30
2017-09-06T02:23:58.229Z,99.20
2017-09-06T02:26:26.581Z,98.90
2017-09-06T02:28:54.194Z,98.90
2017-09-06T02:31:21.781Z,98.80
2017-09-06T02:33:49.644Z,98.80
2017-09-06T02:36:17.207Z,98.60
2017-09-06T02:38:44.803Z,98.60
2017-09-06T02:41:12.394Z,98.60
2017-09-06T02:43:39.947Z,98.60
2017-09-06T02:46:07.511Z,98.50
2017-09-06T02:48:35.083Z,98.40
2017-09-06T02:51:02.656Z,98.50
2017-09-06T02:53:30.223Z,98.70
2017-09-06T02:55:57.815Z,98.60
2017-09-06T02:58:25.391Z,98.60
2017-09-06T03:00:53.274Z,98.70
2017-09-06T03:03:21.658Z,98.80
2017-09-06T03:05:49.246Z,99.00
2017-09-06T03:08:17.592Z,99.30
2017-09-06T03:10:45.153Z,99.20
2017-09-06T03:13:12.741Z,99.50
2017-09-06T03:15:40.327Z,99.60
2017-09-06T03:18:07.912Z,99.50
2017-09-06T03:20:35.491Z,99.50
2017-09-06T03:23:03.449Z,99.50
2017-09-06T03:25:31.026Z,99.70
2017-09-06T03:27:58.593Z,99.40
2017-09-06T03:30:26.181Z,99.40
2017-09-06T03:32:53.749Z,99.20
2017-09-06T03:35:21.336Z,98.80
2017-09-06T03:37:48.911Z,99.10
2017-09-06T03:40:16.477Z,98.80
2017-09-06T03:42:44.037Z,98.50
2017-09-06T03:45:11.623Z,98.30
2017-09-06T03:47:39.189Z,98.10
2017-09-06T03:50:07.846Z,97.70
2017-09-06T03:52:35.432Z,97.70
2017-09-06T03:55:03.035Z,97.40
2017-09-06T03:57:30.636Z,97.30
2017-09-06T03:59:58.207Z,97.20
2017-09-06T04:02:25.789Z,97.10
2017-09-06T04:04:53.387Z,96.80
2017-09-06T04:07:20.979Z,96.70
2017-09-06T04:09:49.314Z,96.60
2017-09-06T04:12:16.897Z,96.60
2017-09-06T04:14:45.233Z,96.20
2017-09-06T04:17:13.118Z,96.20
2017-09-06T04:19:40.686Z,96.10
2017-09-06T04:22:08.322Z,96.20
2017-09-06T04:24:35.920Z,96.30
2017-09-06T04:27:03.500Z,96.40
2017-09-06T04:29:31.889Z,96.30
2017-09-06T04:31:59.498Z,96.30
2017-09-06T04:34:27.104Z,97.80
2017-09-06T04:36:55.496Z,98.90
2017-09-06T04:39:23.423Z,98.80
2017-09-06T04:41:51.043Z,99.10
2017-09-06T04:44:18.605Z,99.50
2017-09-06T04:46:46.195Z,99.90
2017-09-06T04:49:13.767Z,99.90
2017-09-06T04:51:41.372Z,99.90
2017-09-06T04:54:08.970Z,99.90
2017-09-06T04:56:36.543Z,99.90
2017-09-06T04:59:04.148Z,99.90
2017-09-06T05:01:32.067Z,99.90
2017-09-06T05:03:59.631Z,99.90
2017-09-06T05:06:27.972Z,99.90
2017-09-06T05:08:55.553Z,99.90
2017-09-06T05:11:23.893Z,99.90
2017-09-06T05:13:51.487Z,99.90
2017-09-06T05:16:19.045Z,99.90
2017-09-06T05:18:46.897Z,99.90
2017-09-06T05:21:14.471Z,99.90
2017-09-06T05:23:42.046Z,99.90
2017-09-06T05:26:09.626Z,99.90
2017-09-06T05:28:37.198Z,99.90
2017-09-06T05:31:04.843Z,99.90
2017-09-06T05:33:32.411Z,99.90
2017-09-06T05:36:00.004Z,99.90
2017-09-06T05:38:27.588Z,99.90
2017-09-06T05:40:55.567Z,99.90
2017-09-06T05:43:24.112Z,99.90
2017-09-06T05:45:51.685Z,99.90
2017-09-06T05:48:19.258Z,99.90
2017-09-06T05:50:46.827Z,99.90
2017-09-06T05:53:14.408Z,99.90
2017-09-06T05:55:41.970Z,99.90
2017-09-06T05:58:10.324Z,99.90
2017-09-06T06:00:37.897Z,99.90
2017-09-06T06:03:05.750Z,99.90
2017-09-06T06:05:33.327Z,99.90
2017-09-06T06:08:00.892Z,99.90
2017-09-06T06:10:28.475Z,99.90
2017-09-06T06:12:56.056Z,99.90
2017-09-06T06:15:23.697Z,99.90
2017-09-06T06:17:51.276Z,99.90
2017-09-06T06:20:18.878Z,99.90
2017-09-06T06:22:47.210Z,99.90
2017-09-06T06:25:14.836Z,99.90
2017-09-06T06:27:42.410Z,99.90
2017-09-06T06:30:10.297Z,99.90
2017-09-06T06:32:37.873Z,99.90
2017-09-06T06:35:05.456Z,99.70
2017-09-06T06:37:33.797Z,99.30
2017-09-06T06:40:01.370Z,99.30
2017-09-06T06:42:28.946Z,99.20
2017-09-06T06:44:57.288Z,98.60
2017-09-06T06:47:24.927Z,98.60
2017-09-06T06:49:52.525Z,98.20
2017-09-06T06:52:20.475Z,98.20
2017-09-06T06:54:48.049Z,97.90
2017-09-06T06:57:15.615Z,97.30
2017-09-06T06:59:43.281Z,97.10
2017-09-06T07:02:10.986Z,96.70
2017-09-06T07:04:38.597Z,96.30
2017-09-06T07:07:06.199Z,96.80
2017-09-06T07:09:33.788Z,96.00
2017-09-06T07:12:01.374Z,95.40
2017-09-06T07:14:29.425Z,95.10
2017-09-06T07:16:57.064Z,95.20
2017-09-06T07:19:24.829Z,95.00
2017-09-06T07:21:52.443Z,94.70
2017-09-06T07:24:20.016Z,94.90
2017-09-06T07:26:47.602Z,95.00
2017-09-06T07:29:15.200Z,94.50
2017-09-06T07:31:42.773Z,94.10
2017-09-06T07:34:10.330Z,94.20
2017-09-06T07:36:37.906Z,94.30
2017-09-06T07:39:05.503Z,94.00
2017-09-06T07:41:33.431Z,93.50
2017-09-06T07:44:01.069Z,92.90
2017-09-06T07:46:29.007Z,93.30
2017-09-06T07:48:56.657Z,93.00
2017-09-06T07:51:24.242Z,93.10
2017-09-06T07:53:51.828Z,92.40
2017-09-06T07:56:19.430Z,92.70
2017-09-06T07:58:47.114Z,92.60
2017-09-06T08:01:14.719Z,92.80
2017-09-06T08:03:42.593Z,92.70
2017-09-06T08:06:10.157Z,92.50
2017-09-06T08:08:37.729Z,93.00
2017-09-06T08:11:05.976Z,92.80
2017-09-06T08:13:33.553Z,93.20
2017-09-06T08:16:01.145Z,93.40
2017-09-06T08:18:28.712Z,93.60
2017-09-06T08:20:57.049Z,93.90
2017-09-06T08:23:24.644Z,93.90
2017-09-06T08:25:53.332Z,93.40
2017-09-06T08:28:20.971Z,93.30
2017-09-06T08:30:48.541Z,93.40
2017-09-06T08:33:16.895Z,92.60
2017-09-06T08:35:44.509Z,92.60
2017-09-06T08:38:12.102Z,93.30
2017-09-06T08:40:39.692Z,93.80
2017-09-06T08:43:07.259Z,95.00
2017-09-06T08:45:34.837Z,96.30
2017-09-06T08:48:03.184Z,97.90
2017-09-06T08:50:30.767Z,97.90
2017-09-06T08:52:59.119Z,99.90
2017-09-06T08:55:26.692Z,99.90
2017-09-06T08:57:55.027Z,99.90
2017-09-06T09:00:22.608Z,99.90
2017-09-06T09:02:50.166Z,99.90
2017-09-06T09:05:17.741Z,99.90
2017-09-06T09:07:46.101Z,99.90
2017-09-06T09:10:13.687Z,99.90
2017-09-06T09:12:42.038Z,99.90
2017-09-06T09:15:10.305Z,99.90
2017-09-06T09:17:37.877Z,99.90
2017-09-06T09:20:06.212Z,99.10
2017-09-06T09:22:33.807Z,99.00
2017-09-06T09:25:01.390Z,97.90
2017-09-06T09:27:28.994Z,98.00
2017-09-06T09:29:56.612Z,97.50
2017-09-06T09:32:24.198Z,96.50
2017-09-06T09:34:51.796Z,96.60
2017-09-06T09:37:19.395Z,96.70
2017-09-06T09:39:46.980Z,96.30
2017-09-06T09:42:14.882Z,97.00
2017-09-06T09:44:42.455Z,96.50
2017-09-06T09:47:10.920Z,96.00
2017-09-06T09:49:38.499Z,96.00
2017-09-06T09:52:06.132Z,95.30
2017-09-06T09:54:33.718Z,95.40
2017-09-06T09:57:01.296Z,96.00
2017-09-06T09:59:29.652Z,94.90
2017-09-06T10:01:57.218Z,94.90
2017-09-06T10:04:24.839Z,95.30
2017-09-06T10:06:52.418Z,94.80
2017-09-06T10:09:20.409Z,94.20
2017-09-06T10:11:47.987Z,94.00
2017-09-06T10:14:15.580Z,92.80
2017-09-06T10:16:43.315Z,92.60
2017-09-06T10:19:10.902Z,93.00
2017-09-06T10:21:38.509Z,92.50
2017-09-06T10:24:06.092Z,92.70
2017-09-06T10:26:33.676Z,92.30
2017-09-06T10:29:01.265Z,92.10
2017-09-06T10:31:29.135Z,91.90
2017-09-06T10:33:56.718Z,91.00
2017-09-06T10:36:24.313Z,90.50
2017-09-06T10:38:51.908Z,90.20
2017-09-06T10:41:19.498Z,90.20
2017-09-06T10:43:47.083Z,87.40
2017-09-06T10:46:14.633Z,88.00
2017-09-06T10:48:42.254Z,87.70
2017-09-06T10:51:09.851Z,83.70
2017-09-06T10:53:37.448Z,81.70
2017-09-06T10:56:05.018Z,81.20
2017-09-06T10:58:32.876Z,78.90
2017-09-06T11:01:00.461Z,78.50
2017-09-06T11:03:28.039Z,77.80
2017-09-06T11:05:55.619Z,77.10
2017-09-06T11:08:23.186Z,76.30
2017-09-06T11:10:50.778Z,77.40
2017-09-06T11:13:18.348Z,75.20
2017-09-06T11:15:45.930Z,74.00
2017-09-06T11:18:14.263Z,73.30
2017-09-06T11:20:41.841Z,73.30
2017-09-06T11:23:10.051Z,74.50
2017-09-06T11:25:37.958Z,74.60
2017-09-06T11:28:05.528Z,74.60
2017-09-06T11:30:33.123Z,71.90
2017-09-06T11:33:01.465Z,67.60
2017-09-06T11:35:29.034Z,67.60
2017-09-06T11:37:56.620Z,65.10
2017-09-06T11:40:24.971Z,64.80
2017-09-06T11:42:52.595Z,64.70
2017-09-06T11:45:20.168Z,63.90
2017-09-06T11:47:48.047Z,64.50
2017-09-06T11:50:15.610Z,65.80
2017-09-06T11:52:43.450Z,67.30
2017-09-06T11:55:11.094Z,69.10
2017-09-06T11:57:38.670Z,70.80
2017-09-06T12:00:06.264Z,72.30
2017-09-06T12:02:33.838Z,73.80
2017-09-06T12:05:02.247Z,74.80
2017-09-06T12:07:29.812Z,74.80
2017-09-06T12:09:57.409Z,76.10
2017-09-06T12:12:24.971Z,75.00
2017-09-06T12:14:52.929Z,74.50
2017-09-06T12:17:20.506Z,75.40
2017-09-06T12:19:48.073Z,74.30
2017-09-06T12:22:15.674Z,75.00
2017-09-06T12:24:43.245Z,74.70
2017-09-06T12:27:11.064Z,75.30
2017-09-06T12:29:38.645Z,75.80
2017-09-06T12:32:06.229Z,76.70
2017-09-06T12:34:33.821Z,78.80
2017-09-06T12:37:01.679Z,80.80
2017-09-06T12:39:29.290Z,82.60
2017-09-06T12:41:56.898Z,87.40
2017-09-06T12:44:24.546Z,90.10
2017-09-06T12:46:52.914Z,90.70
2017-09-06T12:49:20.537Z,90.60
2017-09-06T12:51:48.135Z,91.30
2017-09-06T12:54:15.718Z,91.80
2017-09-06T12:56:43.302Z,91.80
2017-09-06T12:59:12.860Z,92.10
2017-09-06T13:01:40.448Z,92.10
2017-09-06T13:04:08.024Z,93.20
2017-09-06T13:06:36.402Z,93.10
2017-09-06T13:09:03.977Z,93.00
2017-09-06T13:11:31.578Z,93.20
2017-09-06T13:13:59.147Z,93.50
2017-09-06T13:16:26.730Z,93.50
2017-09-06T13:18:54.310Z,93.50
2017-09-06T13:21:22.165Z,92.90
2017-09-06T13:23:50.499Z,92.00
2017-09-06T13:26:18.094Z,91.90
2017-09-06T13:28:45.690Z,91.20
2017-09-06T13:31:14.045Z,81.80
2017-09-06T13:33:41.629Z,81.70
2017-09-06T13:36:09.195Z,72.80
2017-09-06T13:38:36.795Z,63.70
2017-09-06T13:41:04.368Z,60.70
2017-09-06T13:43:31.934Z,57.20
2017-09-06T13:45:59.511Z,54.80
2017-09-06T13:48:27.081Z,51.00
2017-09-06T13:50:54.704Z,49.50
2017-09-06T13:53:22.286Z,55.10
2017-09-06T13:55:49.871Z,59.40
2017-09-06T13:58:17.436Z,60.80
2017-09-06T14:00:45.777Z,59.60
2017-09-06T14:03:13.365Z,59.50
2017-09-06T14:05:41.246Z,55.70
2017-09-06T14:08:08.828Z,55.00
2017-09-06T14:10:36.499Z,55.90
2017-09-06T14:13:04.073Z,58.40
2017-09-06T14:15:31.642Z,61.00
2017-09-06T14:17:59.228Z,64.20
2017-09-06T14:20:26.816Z,66.20
2017-09-06T14:22:54.400Z,68.50
2017-09-06T14:25:21.984Z,69.50
2017-09-06T14:27:49.933Z,70.50
2017-09-06T14:30:18.261Z,72.80
2017-09-06T14:32:45.831Z,72.80
2017-09-06T14:35:13.789Z,73.60
2017-09-06T14:37:41.369Z,73.80
2017-09-06T14:40:08.963Z,71.20
2017-09-06T14:42:37.331Z,70.40
2017-09-06T14:45:04.952Z,70.40
2017-09-06T14:47:32.543Z,71.10
2017-09-06T14:50:01.281Z,63.30
2017-09-06T14:52:28.860Z,63.30
2017-09-06T14:54:56.436Z,62.70
2017-09-06T14:57:24.023Z,60.80
2017-09-06T14:59:52.368Z,47.80
2017-09-06T15:02:19.981Z,47.80
2017-09-06T15:04:47.665Z,45.10
2017-09-06T15:07:15.250Z,43.20
2017-09-06T15:09:42.816Z,38.70
2017-09-06T15:12:10.408Z,36.10
2017-09-06T15:14:37.979Z,37.60
2017-09-06T15:17:05.845Z,37.00
2017-09-06T15:19:33.406Z,36.50
2017-09-06T15:22:00.962Z,38.20
2017-09-06T15:24:28.545Z,37.50
2017-09-06T15:26:56.125Z,35.90
2017-09-06T15:29:23.710Z,39.80
2017-09-06T15:31:51.282Z,40.20
2017-09-06T15:34:19.639Z,38.30
2017-09-06T15:36:47.222Z,38.30
2017-09-06T15:39:16.077Z,39.60
2017-09-06T15:41:43.652Z,39.60
2017-09-06T15:44:11.280Z,39.00
2017-09-06T15:46:38.877Z,40.00
2017-09-06T15:49:06.448Z,40.60
2017-09-06T15:51:34.058Z,40.20
2017-09-06T15:54:01.648Z,40.10
2017-09-06T15:56:29.992Z,48.70
2017-09-06T15:58:57.573Z,48.70
2017-09-06T16:01:25.471Z,52.30
2017-09-06T16:03:53.054Z,56.20
2017-09-06T16:06:20.649Z,58.80
2017-09-06T16:08:48.232Z,60.90
2017-09-06T16:11:15.795Z,63.50
2017-09-06T16:13:43.381Z,65.20
2017-09-06T16:16:10.981Z,66.10
2017-09-06T16:18:38.574Z,67.20
2017-09-06T16:21:06.144Z,68.70
2017-09-06T16:23:33.739Z,69.40
2017-09-06T16:26:01.341Z,69.70
2017-09-06T16:28:29.325Z,70.70
2017-09-06T16:30:56.906Z,71.30
2017-09-06T16:33:24.468Z,71.70
2017-09-06T16:35:52.048Z,72.80
2017-09-06T16:38:19.626Z,72.70
2017-09-06T16:40:47.203Z,73.60
2017-09-06T16:43:14.788Z,73.80
2017-09-06T16:45:42.730Z,74.50
2017-09-06T16:48:10.326Z,74.10
2017-09-06T16:50:37.915Z,74.60
2017-09-06T16:53:05.567Z,75.80
2017-09-06T16:55:33.121Z,78.00
2017-09-06T16:58:01.478Z,83.20
2017-09-06T17:00:29.082Z,83.20
2017-09-06T17:02:56.672Z,83.60
2017-09-06T17:05:24.265Z,87.80
2017-09-06T17:07:52.997Z,87.80
2017-09-06T17:10:20.586Z,87.80
2017-09-06T17:12:48.165Z,88.00
2017-09-06T17:15:16.321Z,89.80
2017-09-06T17:17:43.942Z,90.20
2017-09-06T17:20:12.564Z,91.20
2017-09-06T17:22:40.138Z,90.80
2017-09-06T17:25:07.719Z,92.40
2017-09-06T17:27:35.325Z,93.00
2017-09-06T17:30:02.947Z,91.90
2017-09-06T17:32:30.564Z,91.70
2017-09-06T17:34:58.149Z,93.00
2017-09-06T17:37:25.793Z,93.10
2017-09-06T17:39:53.389Z,94.10
2017-09-06T17:42:21.122Z,94.10
2017-09-06T17:44:48.691Z,92.50
2017-09-06T17:47:18.015Z,92.30
2017-09-06T17:49:45.602Z,92.10
2017-09-06T17:52:13.520Z,91.80
2017-09-06T17:54:41.103Z,90.70
2017-09-06T17:57:08.682Z,90.80
2017-09-06T17:59:36.290Z,90.40
2017-09-06T18:02:03.946Z,89.20
2017-09-06T18:04:31.679Z,89.00
2017-09-06T18:07:00.052Z,87.70
2017-09-06T18:09:27.663Z,87.70
2017-09-06T18:11:55.250Z,86.90
2017-09-06T18:14:23.156Z,87.80
2017-09-06T18:16:50.754Z,88.80
2017-09-06T18:19:18.346Z,88.10
2017-09-06T18:21:46.066Z,86.80
2017-09-06T18:24:13.697Z,85.10
2017-09-06T18:26:41.415Z,83.50
2017-09-06T18:29:09.064Z,82.70
2017-09-06T18:31:36.714Z,82.10
2017-09-06T18:34:04.325Z,82.30
2017-09-06T18:36:31.953Z,82.00
2017-09-06T18:38:59.551Z,82.40
2017-09-06T18:41:27.139Z,82.40
2017-09-06T18:43:54.741Z,83.30
2017-09-06T18:46:22.340Z,81.00
2017-09-06T18:48:49.981Z,82.30
2017-09-06T18:51:18.549Z,81.40
2017-09-06T18:53:46.525Z,79.60
2017-09-06T18:56:14.338Z,77.90
2017-09-06T18:58:42.853Z,76.10
2017-09-06T19:01:10.455Z,76.00
2017-09-06T19:03:38.166Z,75.90
2017-09-06T19:06:05.789Z,75.90
2017-09-06T19:08:34.208Z,75.00
2017-09-06T19:11:01.893Z,75.00
2017-09-06T19:13:29.498Z,74.80
2017-09-06T19:15:57.109Z,74.80
2017-09-06T19:18:24.715Z,74.90
2017-09-06T19:20:52.665Z,73.20
2017-09-06T19:23:21.257Z,73.00
2017-09-06T19:25:48.970Z,72.50
2017-09-06T19:28:16.602Z,71.60
2017-09-06T19:30:44.288Z,71.50
2017-09-06T19:33:11.970Z,71.40
2017-09-06T19:35:39.619Z,71.20
2017-09-06T19:38:07.507Z,70.40
2017-09-06T19:40:35.201Z,70.90
2017-09-06T19:43:02.831Z,70.20
2017-09-06T19:45:30.433Z,70.40
2017-09-06T19:47:58.599Z,69.60
2017-09-06T19:50:26.218Z,68.50
2017-09-06T19:52:53.806Z,69.00
2017-09-06T19:55:21.440Z,68.90
2017-09-06T19:57:49.541Z,69.20
2017-09-06T20:00:17.945Z,70.60
2017-09-06T20:02:45.535Z,70.50
2017-09-06T20:05:13.505Z,69.90
2017-09-06T20:07:41.119Z,70.00
2017-09-06T20:10:08.750Z,69.90
2017-09-06T20:12:37.164Z,70.10
2017-09-06T20:15:04.777Z,70.10
2017-09-06T20:17:32.499Z,70.10
2017-09-06T20:20:00.448Z,70.20
2017-09-06T20:22:28.059Z,69.70
2017-09-06T20:24:55.660Z,69.20
2017-09-06T20:27:23.281Z,69.20
2017-09-06T20:29:50.933Z,69.30
2017-09-06T20:32:18.815Z,69.10
2017-09-06T20:34:46.413Z,69.50
2017-09-06T20:37:14.031Z,68.70
2017-09-06T20:39:41.669Z,68.50
2017-09-06T20:42:09.262Z,67.90
2017-09-06T20:44:37.704Z,68.40
2017-09-06T20:47:05.319Z,68.30
2017-09-06T20:49:33.698Z,69.10
2017-09-06T20:52:01.352Z,69.10
2017-09-06T20:54:29.015Z,68.90
2017-09-06T20:56:56.629Z,68.70
2017-09-06T20:59:24.667Z,68.10
2017-09-06T21:01:52.325Z,68.40
2017-09-06T21:04:19.995Z,68.30
2017-09-06T21:06:47.603Z,68.90
2017-09-06T21:09:15.166Z,68.90
2017-09-06T21:11:42.761Z,69.40
2017-09-06T21:14:10.330Z,69.90
2017-09-06T21:16:38.019Z,69.50
2017-09-06T21:19:05.645Z,69.40
2017-09-06T21:21:33.245Z,68.50
2017-09-06T21:24:01.419Z,67.50
2017-09-06T21:26:29.286Z,67.70
2017-09-06T21:28:57.129Z,68.10
2017-09-06T21:31:24.743Z,68.40
2017-09-06T21:33:53.161Z,68.60
2017-09-06T21:36:21.523Z,68.60
2017-09-06T21:38:49.158Z,68.50
2017-09-06T21:41:17.620Z,68.40
2017-09-06T21:43:45.225Z,68.20
2017-09-06T21:46:12.820Z,68.80
2017-09-06T21:48:40.393Z,68.90
2017-09-06T21:51:08.023Z,69.40
2017-09-06T21:53:35.641Z,68.90
2017-09-06T21:56:03.214Z,68.30
2017-09-06T21:58:31.135Z,68.80
2017-09-06T22:00:58.771Z,69.00
2017-09-06T22:03:26.348Z,69.70
2017-09-06T22:05:53.968Z,70.20
2017-09-06T22:08:22.366Z,70.10
2017-09-06T22:10:49.993Z,70.40
2017-09-06T22:13:17.607Z,70.30
2017-09-06T22:15:45.216Z,70.20
2017-09-06T22:18:12.801Z,69.80
2017-09-06T22:20:41.212Z,70.00
2017-09-06T22:23:09.052Z,70.00
2017-09-06T22:25:37.199Z,70.10
2017-09-06T22:28:04.785Z,70.10
2017-09-06T22:30:32.350Z,70.40
2017-09-06T22:32:59.980Z,70.60
2017-09-06T22:35:27.562Z,70.50
2017-09-06T22:37:55.171Z,71.10
2017-09-06T22:40:23.419Z,71.30
2017-09-06T22:42:51.026Z,71.60
2017-09-06T22:45:18.626Z,72.20
2017-09-06T22:47:46.229Z,72.50
2017-09-06T22:50:14.593Z,72.50
2017-09-06T22:52:42.553Z,72.40
2017-09-06T22:55:10.145Z,72.70
2017-09-06T22:57:37.746Z,72.90
2017-09-06T23:00:05.352Z,72.90
2017-09-06T23:02:32.966Z,73.30
2017-09-06T23:05:00.568Z,73.80
2017-09-06T23:07:28.197Z,74.00
2017-09-06T23:09:55.790Z,74.30
2017-09-06T23:12:23.923Z,74.90
2017-09-06T23:14:51.645Z,74.70
2017-09-06T23:17:19.224Z,75.30
2017-09-06T23:19:47.273Z,75.40
2017-09-06T23:22:14.913Z,75.30
2017-09-06T23:24:42.514Z,75.40
2017-09-06T23:27:10.162Z,75.40
2017-09-06T23:29:37.739Z,76.40
2017-09-06T23:32:05.321Z,77.10
2017-09-06T23:34:32.966Z,77.50
2017-09-06T23:37:00.565Z,77.80
2017-09-06T23:39:28.191Z,78.10
2017-09-06T23:41:56.196Z,78.70
2017-09-06T23:44:25.669Z,79.30
2017-09-06T23:46:53.271Z,79.40
2017-09-06T23:49:20.900Z,79.50
2017-09-06T23:51:48.514Z,79.80
2017-09-06T23:54:16.118Z,79.80
2017-09-06T23:56:43.693Z,79.80
2017-09-06T23:59:11.293Z,79.90
